Time;durP1;ratioP1;P1;durP2;ratioP2;P2;SDS_P1;SDS_P2;PMS_P1;PMS_P2;Temp;Humidity;BMP_temperature;BMP_pressure;BME280_temperature;BME280_humidity;BME280_pressure;Samples;Min_cycle;Max_cycle;Signal;HPM_P1;HPM_P2
2022/09/13 00:00:55;;;;;;;27.48;12.20;;;;;;;19.67;91.38;100913.13;5051982;28;20029;-41
2022/09/13 00:03:21;;;;;;;28.33;11.98;;;;;;;19.67;90.42;100917.75;5051105;28;20030;-41
2022/09/13 00:05:46;;;;;;;24.70;12.52;;;;;;;19.69;90.78;100912.88;5050517;28;20117;-40
2022/09/13 00:08:12;;;;;;;30.80;13.52;;;;;;;19.70;91.36;100912.66;5052885;28;20064;-41
2022/09/13 00:10:39;;;;;;;23.92;12.35;;;;;;;19.70;91.09;100922.75;5049479;28;20644;-40
2022/09/13 00:13:05;;;;;;;30.43;13.33;;;;;;;19.73;90.96;100916.78;5050040;28;20112;-41
2022/09/13 00:15:31;;;;;;;25.70;13.90;;;;;;;19.72;89.64;100920.56;5048916;28;20346;-40
2022/09/13 00:17:57;;;;;;;32.75;13.98;;;;;;;19.74;90.20;100923.91;5061998;28;20044;-40
2022/09/13 00:20:22;;;;;;;23.45;13.88;;;;;;;19.72;90.19;100921.44;5070059;28;20017;-40
2022/09/13 00:22:48;;;;;;;29.50;13.98;;;;;;;19.77;90.05;100911.66;5051244;28;20120;-41
2022/09/13 00:25:13;;;;;;;27.98;13.55;;;;;;;19.78;90.10;100911.44;5049892;28;20029;-41
2022/09/13 00:27:38;;;;;;;29.98;13.55;;;;;;;19.77;90.43;100912.50;5049291;28;20025;-40
2022/09/13 00:30:05;;;;;;;24.77;12.50;;;;;;;19.76;90.53;100910.84;5050857;28;20092;-40
2022/09/13 00:32:31;;;;;;;26.58;13.63;;;;;;;19.76;90.90;100915.47;5049273;28;20026;-39
2022/09/13 00:34:57;;;;;;;29.85;13.43;;;;;;;19.76;90.71;100919.03;5048869;28;20056;-39
2022/09/13 00:37:22;;;;;;;26.25;13.27;;;;;;;19.77;90.92;100911.66;5058813;28;20013;-40
2022/09/13 00:39:47;;;;;;;24.13;12.85;;;;;;;19.77;90.83;100917.94;5050175;28;20059;-40
2022/09/13 00:42:13;;;;;;;27.88;13.50;;;;;;;19.73;91.00;100905.88;5049056;28;20041;-39
2022/09/13 00:44:58;;;;;;;26.42;13.27;;;;;;;19.72;91.69;100917.84;5048132;28;20022;-40
2022/09/13 00:47:33;;;;;;;27.15;13.23;;;;;;;19.69;91.24;100923.78;5054228;28;20511;-42
2022/09/13 00:50:26;;;;;;;33.65;13.43;;;;;;;19.67;91.67;100924.06;5058538;28;20092;-40
2022/09/13 00:52:58;;;;;;;28.52;13.35;;;;;;;19.65;91.82;100925.31;5069487;28;20021;-40
2022/09/13 00:55:27;;;;;;;26.90;12.82;;;;;;;19.63;91.56;100922.81;5069984;28;20048;-40
2022/09/13 00:57:54;;;;;;;35.45;14.75;;;;;;;19.60;91.52;100927.94;5065521;28;20101;-41
2022/09/13 01:00:20;;;;;;;;;;;;;;;19.56;90.90;100918.56;5069196;28;20081;-40
2022/09/13 01:02:50;;;;;;;33.65;15.05;;;;;;;19.53;91.26;100912.50;5070319;28;19915;-39
2022/09/13 01:05:19;;;;;;;28.45;13.07;;;;;;;19.54;91.93;100907.91;5052512;28;20064;-41
2022/09/13 01:07:45;;;;;;;26.58;12.82;;;;;;;19.52;92.55;100902.66;5051635;28;20057;-39
2022/09/13 01:10:10;;;;;;;31.98;14.23;;;;;;;19.49;91.87;100911.34;5049447;28;20024;-40
2022/09/13 01:12:45;;;;;;;26.60;13.75;;;;;;;19.48;92.18;100915.16;5048754;28;20018;-40
2022/09/13 01:15:11;;;;;;;27.45;13.52;;;;;;;19.47;91.44;100913.47;5048597;28;20021;-40
2022/09/13 01:17:38;;;;;;;37.53;12.75;;;;;;;19.49;92.19;100910.53;5056816;28;20033;-40
2022/09/13 01:20:05;;;;;;;23.70;12.60;;;;;;;19.49;92.51;100899.59;5069293;28;20100;-39
2022/09/13 01:22:49;;;;;;;35.72;14.00;;;;;;;19.47;91.97;100908.00;5065326;28;20032;-39
2022/09/13 01:25:17;;;;;;;32.22;13.57;;;;;;;19.44;92.48;100908.50;5055472;28;20044;-41
2022/09/13 01:27:51;;;;;;;26.83;12.13;;;;;;;19.47;92.71;100907.19;5048717;28;20029;-40
2022/09/13 01:30:24;;;;;;;27.35;13.18;;;;;;;19.45;92.95;100899.22;5050129;28;20234;-40
2022/09/13 01:33:15;;;;;;;23.10;12.30;;;;;;;19.45;93.12;100896.50;5048440;28;20021;-40
2022/09/13 01:35:46;;;;;;;28.77;13.43;;;;;;;19.45;92.97;100901.97;5069066;28;20455;-40
2022/09/13 01:38:24;;;;;;;29.20;12.65;;;;;;;19.46;93.01;100900.09;5055273;28;20563;-40
2022/09/13 01:41:18;;;;;;;31.95;12.95;;;;;;;19.44;92.84;100903.03;5048938;28;20033;-40
2022/09/13 01:43:54;;;;;;;24.85;12.85;;;;;;;19.45;92.86;100884.75;5048996;28;20033;-41
2022/09/13 01:46:30;;;;;;;28.00;12.95;;;;;;;19.44;92.83;100892.13;5048040;28;20078;-40
2022/09/13 01:49:10;;;;;;;28.45;13.68;;;;;;;19.41;92.61;100887.16;5063153;28;20094;-40
2022/09/13 01:51:41;;;;;;;27.02;13.57;;;;;;;19.38;93.36;100881.31;5067696;28;20071;-41
2022/09/13 01:54:39;;;;;;;36.78;14.23;;;;;;;19.37;93.46;100880.50;5064165;28;20060;-40
2022/09/13 01:57:22;;;;;;;35.42;14.48;;;;;;;19.36;93.22;100870.66;5035967;28;20049;-40
2022/09/13 01:59:51;;;;;;;30.35;13.98;;;;;;;19.36;93.61;100884.31;5052706;28;20068;-40
2022/09/13 02:02:20;;;;;;;27.42;13.70;;;;;;;19.35;94.03;100876.34;5066729;28;20046;-40
2022/09/13 02:04:53;;;;;;;26.85;14.18;;;;;;;19.32;93.63;100883.09;5066072;28;20044;-40
2022/09/13 02:07:42;;;;;;;25.92;13.75;;;;;;;19.33;94.41;100882.06;5061611;28;20045;-40
2022/09/13 02:10:21;;;;;;;25.33;13.93;;;;;;;19.31;94.32;100881.47;5042347;28;20037;-40
2022/09/13 02:12:48;;;;;;;25.45;13.75;;;;;;;19.30;94.39;100888.00;5047986;28;20029;-42
2022/09/13 02:15:20;;;;;;;31.58;14.52;;;;;;;19.23;94.19;100881.81;5061534;28;20041;-40
2022/09/13 02:17:49;;;;;;;25.02;13.27;;;;;;;19.22;94.78;100888.34;5058394;28;20041;-39
2022/09/13 02:20:28;;;;;;;32.10;14.75;;;;;;;19.20;94.80;100885.03;5048469;28;20044;-40
2022/09/13 02:22:56;;;;;;;35.17;14.93;;;;;;;19.18;94.48;100879.81;5047151;28;20025;-40
2022/09/13 02:25:22;;;;;;;29.67;14.15;;;;;;;19.20;94.63;100879.59;5046571;28;20040;-40
2022/09/13 02:27:50;;;;;;;29.33;13.55;;;;;;;19.19;94.66;100880.63;5053142;28;20025;-42
2022/09/13 02:30:16;;;;;;;37.47;14.75;;;;;;;19.19;94.93;100883.34;5052614;28;20032;-40
2022/09/13 02:32:48;;;;;;;37.88;15.75;;;;;;;19.20;95.17;100880.41;5066750;28;20024;-41
2022/09/13 02:35:45;;;;;;;31.08;15.45;;;;;;;19.20;94.87;100879.59;5065577;28;20032;-40
2022/09/13 02:38:19;;;;;;;31.33;12.88;;;;;;;19.19;95.39;100877.91;5051197;28;20037;-40
2022/09/13 02:40:50;;;;;;;29.35;14.52;;;;;;;19.17;95.33;100874.56;5046761;28;20512;-40
2022/09/13 02:43:27;;;;;;;28.67;15.00;;;;;;;19.17;95.62;100885.50;5046638;28;20347;-41
2022/09/13 02:46:10;;;;;;;30.60;14.35;;;;;;;19.18;95.61;100881.72;5063634;28;20159;-41
2022/09/13 02:48:48;;;;;;;32.70;15.00;;;;;;;19.20;95.87;100882.31;5048008;28;20029;-40
2022/09/13 02:51:22;;;;;;;25.70;13.40;;;;;;;19.20;95.52;100887.75;5045938;28;20029;-40
2022/09/13 02:54:08;;;;;;;28.48;14.85;;;;;;;19.20;95.65;100895.94;5047380;28;20093;-42
2022/09/13 02:56:42;;;;;;;37.35;15.75;;;;;;;19.20;96.20;100890.50;5029634;28;20030;-41
2022/09/13 02:59:19;;;;;;;28.73;15.00;;;;;;;19.19;95.89;100894.28;5059018;28;20048;-40
2022/09/13 03:02:03;;;;;;;30.23;14.40;;;;;;;19.19;96.28;100899.72;5051331;28;20025;-42
2022/09/13 03:04:28;;;;;;;30.23;14.88;;;;;;;19.18;96.47;100895.34;5047316;28;20037;-40
2022/09/13 03:06:53;;;;;;;27.48;14.18;;;;;;;19.18;96.63;100892.63;5045954;28;20058;-40
2022/09/13 03:09:19;;;;;;;30.58;15.10;;;;;;;19.17;96.49;100890.94;5059169;28;20022;-39
2022/09/13 03:12:23;;;;;;;33.17;16.65;;;;;;;19.15;96.21;100883.00;5046260;28;20039;-40
2022/09/13 03:15:00;;;;;;;35.13;17.15;;;;;;;19.14;96.22;100880.50;5040084;28;20045;-39
2022/09/13 03:17:48;;;;;;;32.75;15.88;;;;;;;19.13;96.29;100884.31;5049562;28;20434;-39
2022/09/13 03:20:51;;;;;;;34.72;16.00;;;;;;;19.12;96.81;100885.41;5063593;28;20021;-41
2022/09/13 03:23:41;;;;;;;40.47;17.10;;;;;;;19.10;97.11;100884.78;5051125;28;20036;-40
2022/09/13 03:26:25;;;;;;;30.40;16.55;;;;;;;19.09;96.99;100889.44;5053388;28;20025;-40
2022/09/13 03:29:17;;;;;;;38.05;16.88;;;;;;;19.09;97.46;100889.44;5064173;28;20092;-40
2022/09/13 03:32:06;;;;;;;33.38;16.13;;;;;;;19.11;98.03;100897.34;5063119;28;20033;-40
2022/09/13 03:34:46;;;;;;;37.72;16.00;;;;;;;19.12;97.87;100893.59;5051610;28;20040;-39
2022/09/13 03:37:24;;;;;;;37.72;17.23;;;;;;;19.11;97.48;100891.91;5052697;28;20056;-39
2022/09/13 03:40:12;;;;;;;46.78;23.63;;;;;;;19.11;97.38;100903.63;5051910;28;20034;-40
2022/09/13 03:42:55;;;;;;;46.35;21.70;;;;;;;19.15;96.96;100906.75;5049989;28;20227;-40
2022/09/13 03:45:25;;;;;;;44.97;22.13;;;;;;;19.16;97.07;100901.03;5059091;28;20110;-40
2022/09/13 03:47:51;;;;;;;57.78;24.83;;;;;;;19.18;96.86;100904.34;5068609;28;20435;-39
2022/09/13 03:50:19;;;;;;;49.08;23.75;;;;;;;19.22;96.43;100896.50;5063308;28;20025;-40
2022/09/13 03:52:46;;;;;;;58.33;24.42;;;;;;;19.22;96.43;100896.50;5057639;28;20043;-40
2022/09/13 03:55:12;;;;;;;48.60;24.10;;;;;;;19.21;96.45;100897.59;5075711;28;20017;-40
2022/09/13 03:57:37;;;;;;;52.67;24.00;;;;;;;19.20;96.23;100895.94;5070227;28;20284;-39
2022/09/13 04:00:03;;;;;;;57.80;28.02;;;;;;;19.19;96.43;100892.38;5066567;28;20029;-39
2022/09/13 04:02:28;;;;;;;54.78;23.98;;;;;;;19.18;96.41;100898.06;5069434;28;20017;-42
2022/09/13 04:04:55;;;;;;;50.15;25.17;;;;;;;19.17;96.05;100896.41;5070790;28;20360;-40
2022/09/13 04:07:22;;;;;;;47.70;24.80;;;;;;;19.13;95.98;100896.06;5061436;28;20041;-40
2022/09/13 04:09:47;;;;;;;53.65;24.30;;;;;;;19.13;96.26;100896.06;5052014;28;20231;-39
2022/09/13 04:12:14;;;;;;;52.42;23.15;;;;;;;19.13;96.40;100895.22;5052420;28;20158;-39
2022/09/13 04:14:40;;;;;;;50.37;23.43;;;;;;;19.11;96.47;100898.19;5052726;28;20033;-40
2022/09/13 04:17:06;;;;;;;45.45;21.92;;;;;;;19.10;96.42;100895.72;5051660;28;20021;-40
2022/09/13 04:19:32;;;;;;;49.28;20.23;;;;;;;19.08;96.38;100896.75;5058268;28;20021;-40
2022/09/13 04:21:57;;;;;;;46.08;19.40;;;;;;;19.10;96.12;100899.25;5070561;28;20279;-40
2022/09/13 04:24:25;;;;;;;32.20;16.27;;;;;;;19.08;95.75;100904.94;5070728;28;20025;-39
2022/09/13 04:26:52;;;;;;;;;;;;;;;19.11;95.85;100908.28;5058333;28;20034;-41
2022/09/13 04:29:17;;;;;;;34.27;16.77;;;;;;;19.12;96.12;100909.94;5063977;28;20244;-39
2022/09/13 04:31:44;;;;;;;40.58;16.85;;;;;;;19.14;96.36;100913.25;5069914;28;20029;-40
2022/09/13 04:34:09;;;;;;;31.73;15.33;;;;;;;19.16;96.29;100913.84;5070503;28;20060;-40
2022/09/13 04:36:34;;;;;;;40.83;15.95;;;;;;;19.21;96.23;100919.44;5070280;28;20028;-41
2022/09/13 04:39:00;;;;;;;44.17;14.73;;;;;;;19.24;96.47;100917.03;5060578;28;20033;-41
2022/09/13 04:41:25;;;;;;;28.98;13.43;;;;;;;19.27;96.06;100919.31;5059686;28;20052;-39
2022/09/13 04:43:51;;;;;;;31.38;15.27;;;;;;;19.30;95.97;100923.47;5052468;28;20025;-40
2022/09/13 04:46:17;;;;;;;35.97;15.48;;;;;;;19.34;95.90;100926.53;5054093;28;20096;-40
2022/09/13 04:48:42;;;;;;;34.42;12.88;;;;;;;19.38;95.85;100917.66;5056020;28;20040;-40
2022/09/13 04:51:08;;;;;;;43.65;14.48;;;;;;;19.41;95.88;100922.63;5075190;28;20033;-39
2022/09/13 04:53:33;;;;;;;44.97;12.82;;;;;;;19.43;96.28;100923.22;5051814;28;20030;-40
2022/09/13 04:56:03;;;;;;;36.85;13.98;;;;;;;19.43;96.38;100917.75;5060858;28;20032;-39
2022/09/13 04:58:29;;;;;;;28.08;12.40;;;;;;;19.46;96.25;100920.00;5057202;28;20092;-40
2022/09/13 05:01:02;;;;;;;24.58;11.10;;;;;;;19.50;96.50;100921.19;5055612;28;20029;-40
2022/09/13 05:03:31;;;;;;;26.48;11.73;;;;;;;19.51;96.30;100920.13;5051345;28;20110;-40
2022/09/13 05:06:08;;;;;;;26.40;12.43;;;;;;;19.51;96.13;100920.13;5054156;28;20044;-40
2022/09/13 05:08:35;;;;;;;32.35;11.27;;;;;;;19.53;96.30;100915.22;5067230;28;20052;-40
2022/09/13 05:11:00;;;;;;;25.92;11.48;;;;;;;19.51;96.44;100920.13;5055426;28;20140;-41
2022/09/13 05:13:26;;;;;;;22.33;11.32;;;;;;;19.50;96.79;100923.91;5058614;28;20044;-39
2022/09/13 05:15:55;;;;;;;25.52;11.38;;;;;;;19.51;97.09;100930.22;5060112;28;20093;-41
2022/09/13 05:18:21;;;;;;;27.02;11.50;;;;;;;19.50;97.15;100939.47;5069257;28;20035;-40
2022/09/13 05:20:47;;;;;;;39.85;11.98;;;;;;;19.48;97.69;100927.94;5068617;28;20205;-40
2022/09/13 05:23:12;;;;;;;24.67;11.15;;;;;;;19.47;97.89;100929.84;5061301;28;20033;-40
2022/09/13 05:25:37;;;;;;;26.05;10.85;;;;;;;19.48;97.98;100930.69;5064028;28;20029;-40
2022/09/13 05:28:03;;;;;;;23.65;11.38;;;;;;;19.46;97.85;100933.66;5061937;28;20017;-41
2022/09/13 05:30:28;;;;;;;25.90;10.32;;;;;;;19.48;97.94;100937.00;5057047;28;20030;-40
2022/09/13 05:32:53;;;;;;;26.90;9.27;;;;;;;19.49;97.96;100938.63;5056923;28;20024;-40
2022/09/13 05:35:19;;;;;;;24.05;9.13;;;;;;;19.49;98.05;100932.34;5056733;28;20028;-40
2022/09/13 05:37:44;;;;;;;21.05;8.90;;;;;;;19.49;98.15;100944.09;5071073;28;20025;-39
2022/09/13 05:40:10;;;;;;;22.92;8.40;;;;;;;19.48;98.40;100941.59;5069535;28;20056;-39
2022/09/13 05:42:35;;;;;;;25.65;8.23;;;;;;;19.48;98.89;100949.78;5071991;28;20029;-39
2022/09/13 05:45:00;;;;;;;21.30;8.27;;;;;;;19.49;98.77;100946.00;5066142;28;20048;-40
2022/09/13 05:47:26;;;;;;;19.92;6.32;;;;;;;19.52;99.01;100946.34;5059240;28;20033;-40
2022/09/13 05:49:51;;;;;;;16.98;6.38;;;;;;;19.53;98.74;100945.25;5056989;28;20855;-43
2022/09/13 05:52:16;;;;;;;18.08;6.60;;;;;;;19.59;98.65;100942.66;5048182;28;20053;-41
2022/09/13 05:54:42;;;;;;;12.05;4.40;;;;;;;19.57;97.75;100944.81;5050440;28;20038;-40
2022/09/13 05:57:07;;;;;;;17.77;4.70;;;;;;;19.62;97.80;100947.66;5066244;28;20025;-42
2022/09/13 05:59:32;;;;;;;10.55;3.88;;;;;;;19.67;97.20;100950.53;5056231;28;20018;-42
2022/09/13 06:01:58;;;;;;;15.05;7.05;;;;;;;19.72;97.08;100956.06;5056615;28;20583;-40
2022/09/13 06:04:23;;;;;;;10.20;4.50;;;;;;;19.76;96.71;100956.44;5069261;28;20074;-41
2022/09/13 06:06:49;;;;;;;27.17;4.55;;;;;;;19.81;96.78;100959.28;5067327;28;20423;-42
2022/09/13 06:09:14;;;;;;;11.30;4.55;;;;;;;19.85;96.50;100966.75;5063038;28;20048;-41
2022/09/13 06:11:40;;;;;;;9.35;3.35;;;;;;;19.95;96.40;100961.50;5068823;28;20033;-41
2022/09/13 06:14:05;;;;;;;11.73;4.40;;;;;;;19.98;95.80;100965.63;5066730;28;20025;-40
2022/09/13 06:16:31;;;;;;;10.32;3.83;;;;;;;20.07;95.71;100966.13;5050409;28;20041;-41
2022/09/13 06:18:57;;;;;;;13.38;3.53;;;;;;;20.13;95.07;100967.88;5059170;28;20021;-42
2022/09/13 06:21:23;;;;;;;11.82;3.72;;;;;;;20.20;94.31;100965.84;5065705;28;20167;-39
2022/09/13 06:23:52;;;;;;;10.68;4.10;;;;;;;20.27;94.14;100961.03;5069101;28;20021;-41
2022/09/13 06:26:23;;;;;;;8.48;3.30;;;;;;;20.35;93.28;100962.56;5068631;28;20033;-41
2022/09/13 06:28:51;;;;;;;9.85;3.50;;;;;;;20.38;93.09;100962.91;5067698;28;20036;-38
2022/09/13 06:31:17;;;;;;;11.43;4.35;;;;;;;20.42;92.39;100959.69;5068627;28;20078;-40
2022/09/13 06:33:43;;;;;;;13.07;3.77;;;;;;;20.41;92.10;100960.78;5053694;28;20112;-40
2022/09/13 06:36:12;;;;;;;9.57;4.00;;;;;;;20.43;92.23;100958.59;5067956;28;20013;-40
2022/09/13 06:38:38;;;;;;;11.55;4.00;;;;;;;20.51;92.00;100961.78;5065822;28;20033;-42
2022/09/13 06:41:08;;;;;;;10.55;4.65;;;;;;;20.55;91.62;100968.44;5072695;28;20036;-41
2022/09/13 06:43:34;;;;;;;10.40;4.70;;;;;;;20.64;91.67;100965.31;5067041;28;20020;-41
2022/09/13 06:46:08;;;;;;;14.05;4.75;;;;;;;20.80;91.42;100962.63;5058919;28;20059;-40
2022/09/13 06:48:35;;;;;;;11.70;5.40;;;;;;;20.91;90.09;100966.34;5074723;28;20163;-41
2022/09/13 06:51:02;;;;;;;15.93;5.75;;;;;;;21.04;88.90;100960.56;5066711;28;20032;-42
2022/09/13 06:53:28;;;;;;;11.63;5.85;;;;;;;21.15;87.85;100955.25;5054406;28;20026;-41
2022/09/13 06:56:01;;;;;;;17.17;6.53;;;;;;;21.21;86.67;100966.00;5062676;28;20055;-42
2022/09/13 06:58:28;;;;;;;12.55;3.85;;;;;;;21.21;85.96;100960.53;5055915;28;20025;-43
2022/09/13 07:00:54;;;;;;;13.23;3.92;;;;;;;21.25;85.84;100972.66;5056244;28;20136;-42
2022/09/13 07:03:19;;;;;;;17.98;3.95;;;;;;;21.17;86.04;100962.13;5067834;28;20061;-41
2022/09/13 07:05:44;;;;;;;14.23;4.47;;;;;;;21.23;85.92;100963.84;5071348;28;20070;-40
2022/09/13 07:08:10;;;;;;;18.35;4.85;;;;;;;21.15;85.73;100960.72;5060957;28;20128;-44
2022/09/13 07:10:35;;;;;;;12.95;3.55;;;;;;;21.13;85.86;100963.69;5068311;28;20017;-41
2022/09/13 07:13:00;;;;;;;21.67;4.47;;;;;;;21.14;85.58;100965.34;5072216;28;20040;-41
2022/09/13 07:15:26;;;;;;;17.67;3.65;;;;;;;21.12;85.96;100961.22;5074509;28;20021;-42
2022/09/13 07:17:51;;;;;;;16.05;4.07;;;;;;;21.10;86.03;100968.84;5071733;28;20043;-42
2022/09/13 07:20:16;;;;;;;13.05;3.60;;;;;;;21.41;86.23;100964.72;5064479;28;20028;-41
2022/09/13 07:22:42;;;;;;;16.58;4.72;;;;;;;21.82;85.45;100970.75;5059798;28;20025;-41
2022/09/13 07:25:07;;;;;;;10.95;3.20;;;;;;;22.14;82.18;100968.97;5073999;28;20016;-42
2022/09/13 07:27:33;;;;;;;17.35;3.72;;;;;;;22.48;78.23;100970.75;5068885;28;20029;-43
2022/09/13 07:29:58;;;;;;;11.60;3.28;;;;;;;22.65;78.52;100971.47;5065788;28;20026;-42
2022/09/13 07:32:23;;;;;;;8.90;3.17;;;;;;;23.10;77.10;100977.66;5055732;28;20040;-43
2022/09/13 07:34:49;;;;;;;6.90;3.20;;;;;;;23.72;74.26;100979.75;5058297;28;20059;-42
2022/09/13 07:37:14;;;;;;;9.65;2.85;;;;;;;24.29;71.68;100981.66;5061655;28;20020;-42
2022/09/13 07:39:39;;;;;;;19.65;3.10;;;;;;;24.60;69.18;100981.75;5073893;28;20021;-42
2022/09/13 07:42:05;;;;;;;10.57;2.85;;;;;;;24.38;68.20;100978.38;5071185;28;20033;-43
2022/09/13 07:44:30;;;;;;;7.35;3.08;;;;;;;24.12;68.33;100986.56;5065681;28;20031;-42
2022/09/13 07:46:55;;;;;;;10.30;2.90;;;;;;;23.66;69.61;100983.53;5059135;28;20030;-42
2022/09/13 07:49:21;;;;;;;8.20;2.65;;;;;;;23.26;70.51;100984.94;5056972;28;20029;-42
2022/09/13 07:51:49;;;;;;;10.07;3.47;;;;;;;23.03;72.56;100979.78;5063346;28;20021;-42
2022/09/13 07:54:16;;;;;;;8.65;2.70;;;;;;;23.19;72.85;100989.81;5063542;28;20071;-41
2022/09/13 07:56:42;;;;;;;10.55;2.83;;;;;;;23.91;71.76;100987.53;5056454;28;20052;-41
2022/09/13 07:59:13;;;;;;;8.85;2.80;;;;;;;24.80;67.74;100985.63;5056163;28;20025;-40
2022/09/13 08:01:43;;;;;;;8.55;2.05;;;;;;;25.52;64.97;100987.31;5061005;28;20048;-42
2022/09/13 08:04:10;;;;;;;8.38;1.98;;;;;;;26.29;60.53;100989.81;5058313;28;20030;-41
2022/09/13 08:06:37;;;;;;;8.38;2.15;;;;;;;26.40;58.95;100985.88;5074078;28;20046;-45
2022/09/13 08:09:03;;;;;;;4.63;1.70;;;;;;;26.26;59.51;100991.22;5074577;28;20087;-44
2022/09/13 08:11:31;;;;;;;7.57;1.98;;;;;;;26.01;60.42;100992.16;5076560;28;20021;-41
2022/09/13 08:13:57;;;;;;;7.68;2.08;;;;;;;25.74;61.35;100991.66;5062713;28;20071;-43
2022/09/13 08:16:24;;;;;;;11.40;1.98;;;;;;;25.28;61.40;100997.25;5072955;28;20029;-41
2022/09/13 08:18:55;;;;;;;8.50;2.13;;;;;;;24.83;62.31;101002.44;5077237;28;20021;-42
2022/09/13 08:21:21;;;;;;;6.35;2.22;;;;;;;24.44;62.87;101000.16;5067172;28;20097;-42
2022/09/13 08:23:48;;;;;;;14.15;2.88;;;;;;;24.04;64.61;101001.66;5066136;28;20039;-42
2022/09/13 08:26:13;;;;;;;10.25;2.30;;;;;;;23.73;65.38;100999.84;5077472;28;20036;-43
2022/09/13 08:28:40;;;;;;;9.98;2.15;;;;;;;23.28;67.16;101004.72;5062448;28;20029;-41
2022/09/13 08:31:15;;;;;;;7.03;2.00;;;;;;;23.07;69.18;101008.41;5068731;28;20017;-42
2022/09/13 08:33:44;;;;;;;11.57;2.63;;;;;;;23.06;69.64;101001.22;5061880;28;20021;-43
2022/09/13 08:36:10;;;;;;;10.98;2.30;;;;;;;23.07;69.16;101008.41;5074169;28;20021;-44
2022/09/13 08:38:35;;;;;;;6.10;1.65;;;;;;;22.97;69.23;101003.63;5069852;28;20047;-42
2022/09/13 08:41:04;;;;;;;5.10;1.50;;;;;;;22.88;70.49;101002.41;5076780;28;20032;-43
2022/09/13 08:43:48;;;;;;;11.57;2.10;;;;;;;23.03;70.46;101008.06;5062709;28;20059;-41
2022/09/13 08:46:21;;;;;;;7.38;1.80;;;;;;;23.10;69.41;101013.34;5072436;28;20029;-41
2022/09/13 08:48:50;;;;;;;8.80;2.05;;;;;;;23.27;67.97;101010.47;5078033;28;20036;-41
2022/09/13 08:51:31;;;;;;;11.18;2.10;;;;;;;23.30;68.26;101018.16;5071741;28;20130;-41
2022/09/13 08:53:57;;;;;;;16.08;1.90;;;;;;;23.59;67.49;101025.00;5055083;28;20125;-42
2022/09/13 08:56:28;;;;;;;19.98;2.58;;;;;;;23.78;66.27;101019.94;5062477;28;20029;-40
2022/09/13 08:59:15;;;;;;;8.57;1.50;;;;;;;23.72;67.81;101026.47;5066883;28;20059;-41
2022/09/13 09:02:08;;;;;;;10.57;2.08;;;;;;;23.54;66.68;101024.09;5066810;28;20037;-40
2022/09/13 09:04:41;;;;;;;7.13;1.80;;;;;;;23.20;67.91;101024.44;5063070;28;20028;-40
2022/09/13 09:07:07;;;;;;;19.10;2.78;;;;;;;22.87;69.80;101020.78;5067639;28;20049;-43
2022/09/13 09:09:45;;;;;;;15.00;2.70;;;;;;;22.91;70.47;101021.94;5077060;28;20023;-40
2022/09/13 09:12:18;;;;;;;13.98;2.40;;;;;;;23.25;68.65;101023.63;5056968;28;20025;-43
2022/09/13 09:14:52;;;;;;;7.13;2.17;;;;;;;23.12;67.00;101022.16;5073517;28;20082;-43
2022/09/13 09:17:23;;;;;;;12.50;2.42;;;;;;;22.97;67.71;101026.41;5058764;28;20067;-42
2022/09/13 09:19:52;;;;;;;11.02;2.15;;;;;;;22.90;68.14;101014.78;5062219;28;20023;-41
2022/09/13 09:22:23;;;;;;;12.02;2.08;;;;;;;23.25;68.12;101010.75;5076202;28;20021;-41
2022/09/13 09:24:53;;;;;;;6.55;1.85;;;;;;;23.86;65.24;101019.41;5075861;28;20028;-43
2022/09/13 09:27:20;;;;;;;10.05;1.77;;;;;;;24.12;63.83;101025.06;5070581;28;20045;-44
2022/09/13 09:29:52;;;;;;;10.70;2.42;;;;;;;24.45;62.18;101023.00;5064760;28;20059;-42
2022/09/13 09:32:55;;;;;;;8.27;1.85;;;;;;;24.62;60.71;101022.75;5072778;28;20025;-42
2022/09/13 09:35:41;;;;;;;11.63;1.95;;;;;;;24.95;59.13;101024.19;5074831;28;20051;-41
2022/09/13 09:38:25;;;;;;;10.90;2.03;;;;;;;25.04;59.12;101021.72;5065400;28;20035;-43
2022/09/13 09:40:51;;;;;;;5.90;2.05;;;;;;;25.02;58.55;101027.53;5076523;28;20106;-44
2022/09/13 09:43:25;;;;;;;7.57;2.08;;;;;;;24.93;56.99;101024.47;5075622;28;20017;-43
2022/09/13 09:45:52;;;;;;;16.58;2.53;;;;;;;24.90;57.36;101025.00;5059634;28;20087;-41
2022/09/13 09:48:22;;;;;;;8.30;1.55;;;;;;;24.89;58.03;101022.56;5069925;28;20064;-43
2022/09/13 09:50:50;;;;;;;8.55;1.83;;;;;;;25.40;56.81;101019.81;5048516;28;20029;-41
2022/09/13 09:53:25;;;;;;;9.75;2.03;;;;;;;25.37;55.60;101017.63;5068953;28;20024;-42
2022/09/13 09:56:20;;;;;;;11.13;2.28;;;;;;;25.24;56.25;101023.69;5066660;28;20028;-40
2022/09/13 09:58:46;;;;;;;13.38;2.33;;;;;;;25.22;55.80;101020.38;5091190;28;20013;-41
2022/09/13 10:01:31;;;;;;;10.35;2.38;;;;;;;24.85;56.94;101022.25;5084690;28;20120;-40
2022/09/13 10:04:18;;;;;;;11.60;2.45;;;;;;;24.56;57.29;101016.41;5068922;28;20043;-41
2022/09/13 10:06:45;;;;;;;6.70;2.15;;;;;;;24.52;58.55;101004.31;5066745;28;20017;-41
2022/09/13 10:09:13;;;;;;;8.85;1.85;;;;;;;24.90;57.16;101013.19;5070948;28;20030;-42
2022/09/13 10:11:56;;;;;;;9.65;1.83;;;;;;;24.87;56.15;101013.72;5066271;28;20108;-41
2022/09/13 10:14:35;;;;;;;10.10;2.20;;;;;;;24.93;56.51;101004.38;5054204;28;20024;-40
2022/09/13 10:17:14;;;;;;;13.20;2.45;;;;;;;24.90;57.20;101002.16;5059443;28;20032;-42
2022/09/13 10:19:40;;;;;;;16.60;2.58;;;;;;;24.66;56.74;100999.94;5059539;28;20029;-40
2022/09/13 10:22:11;;;;;;;6.85;1.85;;;;;;;24.64;57.33;100995.78;5070821;28;20023;-40
2022/09/13 10:24:37;;;;;;;12.27;1.80;;;;;;;24.63;57.62;100992.22;5054974;28;20045;-40
2022/09/13 10:27:04;;;;;;;16.50;2.50;;;;;;;24.31;56.89;100995.97;5050890;28;20045;-41
2022/09/13 10:29:31;;;;;;;14.57;2.03;;;;;;;24.04;58.15;100998.03;5051578;28;20005;-43
2022/09/13 10:32:02;;;;;;;14.13;2.38;;;;;;;23.96;58.85;100993.06;5058604;28;20093;-43
2022/09/13 10:34:32;;;;;;;9.50;1.80;;;;;;;24.17;57.86;100991.22;5072903;28;20064;-43
2022/09/13 10:37:01;;;;;;;9.45;1.88;;;;;;;24.09;57.78;100990.66;5054602;28;20028;-41
2022/09/13 10:39:28;;;;;;;7.30;1.75;;;;;;;23.79;59.42;100985.84;5071462;28;20767;-41
2022/09/13 10:42:06;;;;;;;;;;;;;;;23.80;59.28;100979.28;5068364;28;20036;-43
2022/09/13 10:44:50;;;;;;;13.60;2.15;;;;;;;23.78;60.06;100984.19;5054193;28;19933;-41
2022/09/13 10:47:22;;;;;;;10.23;2.10;;;;;;;23.75;58.46;100981.13;5057188;28;20198;-41
2022/09/13 10:49:53;;;;;;;10.65;2.28;;;;;;;23.72;58.34;100988.00;5059218;28;20025;-43
2022/09/13 10:52:24;;;;;;;5.07;1.40;;;;;;;23.88;57.63;100997.16;5054241;28;20023;-42
2022/09/13 10:54:49;;;;;;;7.90;1.85;;;;;;;23.92;58.62;100997.47;5057133;28;20085;-41
2022/09/13 10:57:36;;;;;;;9.88;1.48;;;;;;;24.16;57.11;100998.66;5055244;28;20026;-43
2022/09/13 11:00:08;;;;;;;4.72;1.33;;;;;;;24.05;57.11;101003.28;5055197;28;20044;-42
2022/09/13 11:02:49;;;;;;;13.05;2.00;;;;;;;24.14;57.16;101000.84;5059367;28;20018;-43
2022/09/13 11:05:52;;;;;;;6.65;1.35;;;;;;;24.10;56.82;100995.06;5062951;28;20025;-40
2022/09/13 11:08:24;;;;;;;11.82;2.10;;;;;;;23.90;57.69;100994.97;5061718;28;20072;-39
2022/09/13 11:11:12;;;;;;;8.63;1.67;;;;;;;24.69;55.84;100995.81;5064582;28;20071;-40
2022/09/13 11:14:01;;;;;;;10.98;1.60;;;;;;;24.89;54.25;100989.50;5074545;28;20017;-43
2022/09/13 11:16:57;;;;;;;10.63;1.83;;;;;;;24.72;54.19;100996.09;5067260;28;20017;-43
2022/09/13 11:19:47;;;;;;;5.75;1.48;;;;;;;24.46;54.57;100984.22;5066138;28;20024;-43
2022/09/13 11:22:46;;;;;;;12.48;2.30;;;;;;;24.28;55.11;100973.69;5069833;28;20021;-41
2022/09/13 11:25:20;;;;;;;5.57;1.27;;;;;;;25.05;53.92;100980.16;5060592;28;20064;-42
2022/09/13 11:27:49;;;;;;;6.90;1.20;;;;;;;25.96;51.11;100983.91;5080703;28;20025;-42
2022/09/13 11:30:20;;;;;;;11.20;1.58;;;;;;;26.93;47.21;100991.63;5084885;28;20051;-40
2022/09/13 11:32:58;;;;;;;13.27;2.20;;;;;;;26.58;47.90;100995.47;5059331;28;20021;-43
2022/09/13 11:35:45;;;;;;;13.60;1.48;;;;;;;26.55;48.12;100993.28;5062195;28;20154;-44